Flight Track Log - Related Links

Times and Time Zones

All times are in EDT time to prevent confusion due to time zone crossing. See the DAL2001 flight status page for this flight to view local times or setup timezone preferences in your user account.

Time Position Orientation Groundspeed Altitude Reporting Facility
EDT Latitude Longitude Course Direction KTS MPH feet Rate Location/Type
Wed 12:59:24 AM 40.8133 -112.0025 255° West 177 204 5,300  Level Salt Lake Center
Wed 01:00:43 AM 40.8503 -112.0922 299° West 244 281 8,100 2,229 Climbing Salt Lake Center
Wed 01:01:09 AM 40.8589 -112.1158 296° West 243 280 9,200 2,754 Climbing Salt Lake Center
Wed 01:01:44 AM 40.8794 -112.1758 294° West 255 293 10,900 2,300 Climbing Salt Lake Center
Wed 01:02:00 AM 40.8648 -112.4445 258° West  Level FlightAware Approximate
Wed 01:02:09 AM 40.8886 -112.2050 293° West 266 306 11,500  Level Salt Lake Center
Wed 01:03:00 AM 40.8500 -112.5808 270° West  Level FlightAware Approximate
Wed 01:03:10 AM 40.8803 -112.3314 265° West 346 398 13,400  Level Salt Lake Center
Wed 01:04:00 AM 40.8366 -112.7170 255° West  Level FlightAware Approximate
Wed 01:04:11 AM 40.8700 -112.4592 264° West 350 403 17,500  Level Salt Lake Center
Wed 01:05:12 AM 40.8625 -112.5744 265° West 318 366 20,200 2,083 Climbing Salt Lake Center
Wed 01:06:12 AM 40.8522 -112.7064 264° West 367 422 21,700 2,281 Climbing Salt Lake Center
Wed 01:07:13 AM 40.8414 -112.8686 265° West 369 425 24,800 2,410 Climbing Salt Lake Center
Wed 01:08:14 AM 40.8425 -113.0031 271° West 366 421 26,600 1,721 Climbing Salt Lake Center
Wed 01:09:15 AM 40.8436 -113.1411 271° West 374 430 28,300 1,488 Climbing Salt Lake Center
Wed 01:10:15 AM 40.8428 -113.2811 270° West 380 437 29,600 1,438 Climbing Salt Lake Center
Wed 01:11:16 AM 40.8433 -113.4253 270° West 391 450 31,200 1,623 Climbing Salt Lake Center
Wed 01:12:17 AM 40.8431 -113.5631 270° West 381 438 32,900 1,537 Climbing Salt Lake Center
Wed 01:13:17 AM 40.8425 -113.7008 270° West 376 433 34,300 1,091 Climbing Salt Lake Center
Wed 01:14:18 AM 40.8411 -113.8392 269° West 377 434 35,100 836 Climbing Salt Lake Center
Wed 01:15:19 AM 40.8414 -113.9786 270° West 381 438 36,000 443 Climbing Salt Lake Center
Wed 01:16:20 AM 40.8394 -114.1164 269° West 378 435 36,000  Level Salt Lake Center
Wed 01:17:20 AM 40.8392 -114.2544 270° West 377 434 36,000  Level Salt Lake Center
Wed 01:18:21 AM 40.8361 -114.3931 268° West 378 435 36,000  Level Salt Lake Center
Wed 01:19:22 AM 40.8358 -114.5300 270° West 376 433 36,000  Level Salt Lake Center
Wed 01:20:22 AM 40.8344 -114.6697 269° West 371 427 36,000  Level Salt Lake Center
Wed 01:21:23 AM 40.8283 -114.8000 266° West 370 426 36,000  Level Salt Lake Center
Wed 01:22:24 AM 40.8114 -114.9511 262° West 372 428 36,000  Level Salt Lake Center
Wed 01:23:24 AM 40.7931 -115.0786 259° West 368 423 36,000  Level Salt Lake Center
Wed 01:24:25 AM 40.7781 -115.2075 261° West 370 426 36,000  Level Salt Lake Center
Wed 01:25:26 AM 40.7617 -115.3583 262° West 372 428 36,000  Level Salt Lake Center
Wed 01:26:26 AM 40.7469 -115.4875 261° West 372 428 36,000  Level Salt Lake Center
Wed 01:27:27 AM 40.7308 -115.6142 261° West 368 423 36,000  Level Salt Lake Center
Wed 01:28:28 AM 40.7153 -115.7622 262° West 365 420 36,000  Level Salt Lake Center
Wed 01:29:28 AM 40.6994 -115.8897 261° West 367 422 36,000  Level Salt Lake Center
Wed 01:30:29 AM 40.6844 -116.0156 261° West 366 421 36,000  Level Salt Lake Center
Wed 01:31:29 AM 40.6653 -116.1636 260° West 367 422 36,000  Level Salt Lake Center
Wed 01:32:30 AM 40.6486 -116.2922 260° West 370 426 36,000  Level Salt Lake Center
Wed 01:33:31 AM 40.6331 -116.4206 261° West 371 427 36,000  Level Salt Lake Center
Wed 01:34:31 AM 40.6139 -116.5711 261° West 374 430 36,000  Level Salt Lake Center
Wed 01:35:32 AM 40.5981 -116.6997 261° West 374 430 36,000  Level Salt Lake Center
Wed 01:36:33 AM 40.5811 -116.8292 260° West 378 435 36,000  Level Salt Lake Center
Wed 01:37:33 AM 40.5550 -116.9800 257° West 386 444 36,000  Level Salt Lake Center
Wed 01:38:34 AM 40.5203 -117.1081 250° West 393 452 36,000  Level Salt Lake Center
Wed 01:39:34 AM 40.4814 -117.2575 251° West 391 450 36,000  Level Salt Lake Center
Wed 01:40:35 AM 40.4472 -117.3836 250° West 387 445 36,000  Level Salt Lake Center
Wed 01:41:36 AM 40.4142 -117.5100 251° West 385 443 36,000  Level Salt Lake Center
Wed 01:42:36 AM 40.3739 -117.6592 251° West 387 445 36,000 -347 Level Salt Lake Center
Wed 01:43:37 AM 40.3417 -117.7883 252° West 389 448 35,300 -793 Descending Salt Lake Center
Wed 01:44:37 AM 40.3122 -117.9197 254° West 391 450 34,400 -1,011 Descending Salt Lake Center
Wed 01:45:12 AM 40.2919 -118.0086 253° West 394 453 33,700 -1,011 Descending Oakland Center
Wed 01:46:12 AM 40.2647 -118.1389 255° West 396 456 32,800 -893 Descending Oakland Center
Wed 01:47:13 AM 40.2322 -118.2792 253° West 402 463 31,900 -934 Descending Oakland Center
Wed 01:48:14 AM 40.1992 -118.4183 253° West 403 464 30,900 -992 Descending Oakland Center
Wed 01:49:14 AM 40.1669 -118.5614 254° West 409 471 29,900 -992 Descending Oakland Center
Wed 01:50:15 AM 40.1308 -118.7042 252° West 414 476 28,900 -1,448 Descending Oakland Center
Wed 01:50:41 AM 40.1108 -118.7903 253° West 419 482 27,800 -2,852 Descending Salt Lake Center
Wed 01:51:16 AM 40.0906 -118.8789 253° West 420 483 26,000 -3,221 Descending Oakland Center
Wed 01:52:16 AM 40.0569 -119.0172 252° West 408 470 22,700 -3,174 Descending Oakland Center
Wed 01:53:17 AM 40.0239 -119.1503 252° West 391 450 19,600 -2,678 Descending Oakland Center
Wed 01:54:17 AM 39.9939 -119.2775 253° West 373 429 17,300 -1,686 Descending Oakland Center
Wed 01:55:18 AM 39.9672 -119.3881 253° West 329 379 16,200 -1,377 Descending Oakland Center
Wed 01:56:19 AM 39.9428 -119.4897 253° West 301 346 14,500 -1,636 Descending Oakland Center
Wed 01:57:19 AM 39.9217 -119.5906 255° West 293 337 12,900 -1,983 Descending Oakland Center
Wed 01:58:20 AM 39.8800 -119.6769 238° Southwest 290 334 10,500 -1,785 Descending Oakland Center
Wed 01:59:20 AM 39.8194 -119.7600 227° Southwest 298 343 9,300 -1,048 Descending Oakland Center
Wed 02:01:29 AM 39.6667 -119.7667 182° South 226 260 7,200 -857 Descending Northern Cal TRACON
Wed 02:02:29 AM 39.6167 -119.7667 180° South 189 217 6,600 -694 Descending Northern Cal TRACON
Wed 02:03:30 AM 39.5833 -119.7667 180° South 146 168 5,800 -793 Descending Northern Cal TRACON
Wed 02:04:30 AM 39.5333 -119.7667 180° South 139 160 5,000 -800 Descending Northern Cal TRACON
Wed 02:06:00 AM 39.4991 -119.7681 188° South  Level Estimated
Wed 02:13:00 AM 39.4991 -119.7681 188° South  Level Estimated

Login

Don't have an account? Register now (free) for customized features, flight alerts, and more!